Weather at RAF Fairford

Public forecast

Using degrees Celsius for public forecast. Weather courtesy of forecast.io.

Current aviation weather report (METAR) for RAF Fairford

Retrieved 2021/10/21 22:56 UTC (36 minutes ago):

EGVA 212256Z AUTO 24005KT 9999 CLR 03/03 A3006 RMK AO2 SLP185 T00320031

Aviation forecast (TAF) for RAF Fairford

Forecast is more than 12 hours old.

Retrieved 2021/10/21 10:03 UTC (13 hours ago):

TAF TAF EGVA 211000Z 2110/2216 30010G15KT 9999 FEW040 QNH2976INS TEMPO 2110/2116 30015G25KT BECMG 2122/2123 27010G18KT 9999 FEW015 BKN020 QNH2991INS BECMG 2206/2207 27015G25KT 9999 BKN030 QNH2993INS TX11/2115Z TN06/2203Z